Time;durP1;ratioP1;P1;durP2;ratioP2;P2;SDS_P1;SDS_P2;PMS_P1;PMS_P2;Temp;Humidity;BMP_temperature;BMP_pressure;BME280_temperature;BME280_humidity;BME280_pressure;Samples;Min_cycle;Max_cycle;Signal;HPM_P1;HPM_P2
2024/02/11 00:02:24;;;;;;;9.27;8.37;;;;;;;12.17;97.47;97285.84;10201811;28;20067;-62
2024/02/11 00:07:26;;;;;;;10.77;8.63;;;;;;;12.17;98.31;97289.34;10206858;28;20066;-61
2024/02/11 00:12:29;;;;;;;11.25;10.15;;;;;;;11.94;98.23;97288.94;10184209;28;20133;-63
2024/02/11 00:17:32;;;;;;;10.23;9.15;;;;;;;11.97;98.93;97297.31;10202735;28;20567;-63
2024/02/11 00:22:34;;;;;;;11.97;9.53;;;;;;;12.03;98.63;97309.81;10189262;28;20063;-62
2024/02/11 00:27:42;;;;;;;10.90;9.80;;;;;;;11.95;99.20;97288.72;10199642;28;20047;-62
2024/02/11 00:32:46;;;;;;;10.55;9.02;;;;;;;12.02;98.87;97297.53;10205139;28;20051;-63
2024/02/11 00:37:47;;;;;;;10.40;9.27;;;;;;;11.78;98.74;97266.94;10202790;28;20138;-62
2024/02/11 00:42:49;;;;;;;9.52;8.13;;;;;;;11.95;98.38;97306.53;10187258;28;20147;-60
2024/02/11 00:47:50;;;;;;;8.32;7.03;;;;;;;11.83;97.93;97306.31;10190552;28;20050;-62
2024/02/11 00:52:52;;;;;;;6.45;5.85;;;;;;;11.79;98.14;97329.06;10209202;28;20058;-61
2024/02/11 00:57:54;;;;;;;8.57;6.07;;;;;;;11.68;98.31;97333.97;10206088;28;20055;-62
2024/02/11 01:02:56;;;;;;;7.47;6.13;;;;;;;11.58;98.82;97333.53;10208303;28;20061;-62
2024/02/11 01:08:01;;;;;;;10.20;6.10;;;;;;;11.55;98.94;97333.94;10210657;28;20062;-63
2024/02/11 01:13:04;;;;;;;7.05;6.13;;;;;;;11.48;99.23;97325.09;10200161;28;20047;-62
2024/02/11 01:18:06;;;;;;;7.97;6.18;;;;;;;11.55;99.86;97333.94;10202585;28;20875;-63
2024/02/11 01:23:08;;;;;;;6.55;5.88;;;;;;;11.57;100.00;97342.53;10197285;28;24931;-61
2024/02/11 01:28:11;;;;;;;7.00;6.18;;;;;;;11.58;100.00;97348.69;10206569;28;20161;-61
2024/02/11 01:33:13;;;;;;;6.55;5.95;;;;;;;11.56;100.00;97340.91;10203860;28;20617;-62
2024/02/11 01:38:15;;;;;;;7.30;6.53;;;;;;;11.56;100.00;97340.91;10198616;28;20095;-62
2024/02/11 01:43:17;;;;;;;7.07;6.10;;;;;;;11.57;100.00;97337.19;10196650;28;20070;-63
2024/02/11 01:48:18;;;;;;;8.40;7.53;;;;;;;11.49;100.00;97343.53;10196626;28;20277;-62
2024/02/11 01:53:21;;;;;;;11.15;7.20;;;;;;;11.46;100.00;97346.59;10200681;28;20055;-60
2024/02/11 01:58:22;;;;;;;7.80;7.00;;;;;;;11.43;100.00;97346.19;10193254;28;20582;-63
2024/02/11 02:03:24;;;;;;;8.25;7.30;;;;;;;11.42;100.00;97349.88;10198472;28;20184;-62
2024/02/11 02:08:26;;;;;;;7.85;7.05;;;;;;;11.32;100.00;97351.06;10198367;28;20059;-62
2024/02/11 02:13:27;;;;;;;7.95;7.25;;;;;;;11.26;100.00;97346.53;10188408;28;20050;-63
2024/02/11 02:18:34;;;;;;;9.10;8.23;;;;;;;11.21;100.00;97343.63;10199315;28;20055;-62
2024/02/11 02:23:35;;;;;;;10.38;8.18;;;;;;;11.15;100.00;97325.81;10198436;28;20087;-62
2024/02/11 02:28:37;;;;;;;9.85;8.95;;;;;;;11.26;100.00;97345.69;10198503;28;20066;-63
2024/02/11 02:33:38;;;;;;;9.30;8.30;;;;;;;11.30;100.00;97346.97;10199237;28;20640;-62
2024/02/11 02:38:42;;;;;;;12.23;9.05;;;;;;;11.34;100.00;97358.03;10198524;28;20591;-61
2024/02/11 02:43:46;;;;;;;9.45;8.55;;;;;;;11.27;100.00;97358.00;10200457;28;20054;-61
2024/02/11 02:48:50;;;;;;;10.82;9.40;;;;;;;11.26;100.00;97357.19;10200383;28;20044;-62
2024/02/11 02:53:51;;;;;;;10.30;9.30;;;;;;;11.31;100.00;97360.06;10187904;28;20083;-62
2024/02/11 02:58:54;;;;;;;12.82;9.95;;;;;;;11.28;100.00;97363.13;10205036;28;20049;-63
2024/02/11 03:03:59;;;;;;;10.30;9.30;;;;;;;11.26;100.00;97359.84;10205700;28;20059;-62
2024/02/11 03:09:01;;;;;;;10.50;9.50;;;;;;;11.25;100.00;97360.06;10203888;28;20267;-63
2024/02/11 03:14:03;;;;;;;11.05;10.00;;;;;;;11.18;100.00;97341.38;10208484;28;20145;-61
2024/02/11 03:19:05;;;;;;;10.57;9.35;;;;;;;11.21;100.00;97353.47;10191158;28;20063;-63
2024/02/11 03:24:07;;;;;;;12.10;11.00;;;;;;;11.22;100.00;97353.28;10207867;28;20070;-62
2024/02/11 03:29:09;;;;;;;13.32;11.15;;;;;;;11.15;100.00;97363.06;10209580;28;20114;-64
2024/02/11 03:34:10;;;;;;;12.18;10.70;;;;;;;11.05;100.00;97367.94;10194135;28;20158;-62
2024/02/11 03:39:12;;;;;;;12.63;10.50;;;;;;;11.00;100.00;97373.03;10190061;28;20607;-61
2024/02/11 03:44:14;;;;;;;11.30;10.18;;;;;;;10.98;100.00;97375.91;10201932;28;20051;-61
2024/02/11 03:49:15;;;;;;;11.18;9.73;;;;;;;10.87;100.00;97376.44;10205596;28;20047;-63
2024/02/11 03:54:17;;;;;;;11.05;9.75;;;;;;;10.79;100.00;97393.38;10203872;28;20054;-61
2024/02/11 03:59:20;;;;;;;11.45;9.43;;;;;;;10.80;100.00;97405.69;10185559;28;20139;-60
2024/02/11 04:04:22;;;;;;;11.10;10.00;;;;;;;10.77;100.00;97406.06;10203542;28;20066;-63
2024/02/11 04:09:28;;;;;;;9.73;8.50;;;;;;;10.76;100.00;97407.06;10203972;28;20059;-63
2024/02/11 04:14:31;;;;;;;8.82;7.47;;;;;;;10.67;100.00;97421.53;10206689;28;20114;-61
2024/02/11 04:19:34;;;;;;;9.85;7.43;;;;;;;10.61;100.00;97421.31;10201687;28;20660;-61
2024/02/11 04:24:39;;;;;;;6.90;6.28;;;;;;;10.59;100.00;97430.50;10200838;28;20058;-63
2024/02/11 04:29:44;;;;;;;5.35;4.85;;;;;;;10.60;100.00;97435.63;10200210;28;20051;-63
2024/02/11 04:34:46;;;;;;;4.38;3.97;;;;;;;10.64;100.00;97438.69;10193994;28;20099;-62
2024/02/11 04:39:47;;;;;;;3.22;2.92;;;;;;;10.62;100.00;97454.03;10192162;28;20050;-64
2024/02/11 04:44:51;;;;;;;3.15;2.30;;;;;;;10.53;100.00;97448.03;10184315;28;20063;-63
2024/02/11 04:49:53;;;;;;;2.10;1.03;;;;;;;10.56;100.00;97452.97;10199014;28;20730;-63
2024/02/11 04:54:56;;;;;;;2.42;0.82;;;;;;;10.40;100.00;97450.56;10195078;28;20055;-62
2024/02/11 04:59:58;;;;;;;0.93;0.40;;;;;;;10.41;99.77;97454.88;10201604;28;20085;-62
2024/02/11 05:05:04;;;;;;;1.17;0.60;;;;;;;10.25;98.99;97462.09;10201572;28;20137;-60
2024/02/11 05:10:06;;;;;;;0.60;0.40;;;;;;;10.10;98.20;97466.63;10201540;28;20047;-62
2024/02/11 05:15:08;;;;;;;1.63;0.30;;;;;;;10.16;97.86;97495.09;10204514;28;20062;-60
2024/02/11 05:20:12;;;;;;;0.60;0.28;;;;;;;10.06;98.22;97478.66;10189673;28;20050;-63
2024/02/11 05:25:19;;;;;;;0.50;0.30;;;;;;;9.99;98.11;97499.81;10196604;28;20117;-63
2024/02/11 05:30:25;;;;;;;0.60;0.30;;;;;;;9.94;97.13;97498.72;10195024;28;21935;-63
2024/02/11 05:35:28;;;;;;;2.15;0.57;;;;;;;9.80;96.05;97493.25;10196841;28;20052;-64
2024/02/11 05:40:35;;;;;;;0.90;0.65;;;;;;;9.75;94.80;97508.13;10199814;28;20052;-62
2024/02/11 05:45:37;;;;;;;0.93;0.70;;;;;;;9.64;94.11;97491.66;10190167;28;22038;-63
2024/02/11 05:50:39;;;;;;;1.10;0.80;;;;;;;9.83;93.53;97500.88;10196532;28;20066;-63
2024/02/11 05:55:41;;;;;;;2.45;0.93;;;;;;;9.86;93.16;97515.59;10197534;28;20059;-63
2024/02/11 06:00:43;;;;;;;2.10;0.75;;;;;;;9.81;92.82;97518.00;10196844;28;20060;-63
2024/02/11 06:05:46;;;;;;;0.90;0.50;;;;;;;9.94;92.44;97527.97;10199904;28;20051;-63
2024/02/11 06:10:48;;;;;;;1.13;0.73;;;;;;;9.77;91.95;97538.78;10195289;28;20056;-62
2024/02/11 06:15:49;;;;;;;0.98;0.57;;;;;;;9.71;92.41;97550.16;10189259;28;20137;-62
2024/02/11 06:20:51;;;;;;;0.95;0.60;;;;;;;9.75;92.14;97553.28;10200995;28;20055;-61
2024/02/11 06:25:57;;;;;;;1.98;0.95;;;;;;;9.69;92.41;97546.88;10201409;28;20106;-63
2024/02/11 06:30:58;;;;;;;1.60;1.00;;;;;;;9.79;92.81;97573.16;10214245;28;20047;-63
2024/02/11 06:36:00;;;;;;;0.95;0.52;;;;;;;9.79;91.35;97584.63;10207153;28;20398;-62
2024/02/11 06:41:03;;;;;;;1.40;0.95;;;;;;;9.79;90.90;97589.94;10212610;28;20122;-63
2024/02/11 06:46:08;;;;;;;2.33;1.05;;;;;;;9.76;91.01;97611.56;10183165;28;20153;-62
2024/02/11 06:51:10;;;;;;;0.80;0.75;;;;;;;9.77;91.31;97626.47;10202646;28;20432;-62
2024/02/11 06:56:12;;;;;;;2.30;1.20;;;;;;;9.79;90.65;97635.09;10204030;28;20133;-61
2024/02/11 07:01:18;;;;;;;1.85;1.08;;;;;;;9.76;90.76;97647.91;10207365;28;20055;-63
2024/02/11 07:06:20;;;;;;;2.25;1.40;;;;;;;9.81;90.15;97648.19;10214086;28;20054;-63
2024/02/11 07:11:22;;;;;;;3.03;1.50;;;;;;;9.79;90.89;97647.53;10208882;28;20605;-62
2024/02/11 07:16:27;;;;;;;2.65;1.80;;;;;;;9.89;90.21;97662.22;10194372;28;20060;-64
2024/02/11 07:21:31;;;;;;;2.00;1.80;;;;;;;9.86;91.40;97680.34;10198395;28;20199;-62
2024/02/11 07:26:33;;;;;;;3.60;2.10;;;;;;;9.90;90.99;97681.63;10216464;28;20557;-63
2024/02/11 07:31:37;;;;;;;2.50;1.90;;;;;;;9.67;91.88;97671.09;10210971;28;20438;-61
2024/02/11 07:36:42;;;;;;;3.08;2.17;;;;;;;9.72;92.99;97695.25;10195244;28;20059;-63
2024/02/11 07:41:45;;;;;;;4.78;2.60;;;;;;;9.79;92.45;97706.81;10218320;28;21395;-65
2024/02/11 07:46:47;;;;;;;3.50;2.80;;;;;;;9.80;92.61;97699.66;10201652;28;20050;-65
2024/02/11 07:51:48;;;;;;;3.60;2.35;;;;;;;9.84;92.88;97704.44;10199767;28;20701;-64
2024/02/11 07:56:50;;;;;;;5.80;3.45;;;;;;;9.87;91.41;97719.19;10199433;28;20531;-65
2024/02/11 08:01:52;;;;;;;3.67;3.30;;;;;;;9.85;93.02;97722.03;10202955;28;20074;-65
2024/02/11 08:06:54;;;;;;;6.00;4.50;;;;;;;9.70;93.11;97729.16;10201507;28;20152;-64
2024/02/11 08:11:55;;;;;;;5.30;4.25;;;;;;;9.70;93.54;97724.66;10208256;28;20165;-65
2024/02/11 08:16:57;;;;;;;6.03;4.53;;;;;;;9.67;94.10;97730.34;10191839;28;20341;-64
2024/02/11 08:21:59;;;;;;;6.55;4.93;;;;;;;9.80;95.01;97729.72;10203050;28;20134;-63
2024/02/11 08:27:01;;;;;;;6.00;4.70;;;;;;;9.93;94.92;97738.91;10197845;28;20545;-65
2024/02/11 08:32:06;;;;;;;6.93;4.57;;;;;;;9.89;95.02;97741.09;10202223;28;20062;-65
2024/02/11 08:37:08;;;;;;;8.20;4.90;;;;;;;9.90;95.36;97746.22;10183591;28;20055;-65
2024/02/11 08:42:10;;;;;;;7.10;5.40;;;;;;;10.02;95.23;97749.28;10199693;28;20276;-66
2024/02/11 08:47:11;;;;;;;6.38;5.22;;;;;;;10.03;94.52;97753.59;10210710;28;20162;-64
2024/02/11 08:52:14;;;;;;;6.88;5.00;;;;;;;9.97;94.48;97762.28;10198556;28;20074;-64
2024/02/11 08:57:22;;;;;;;6.75;5.20;;;;;;;10.01;94.82;97771.56;10179512;28;20055;-63
2024/02/11 09:02:26;;;;;;;8.52;5.95;;;;;;;10.09;93.58;97760.03;10196824;28;20058;-64
2024/02/11 09:07:34;;;;;;;10.07;6.13;;;;;;;10.16;92.96;97760.91;10201126;28;20481;-64
2024/02/11 09:12:36;;;;;;;10.93;6.33;;;;;;;10.14;93.28;97775.41;10197763;28;20438;-64
2024/02/11 09:17:43;;;;;;;7.72;6.10;;;;;;;10.15;92.64;97777.06;10197268;28;20046;-66
2024/02/11 09:22:46;;;;;;;8.88;7.25;;;;;;;10.06;92.60;97766.50;10191266;28;20054;-65
2024/02/11 09:27:49;;;;;;;9.57;6.70;;;;;;;10.17;93.39;97781.19;10196781;28;20064;-65
2024/02/11 09:32:50;;;;;;;8.75;6.80;;;;;;;10.23;92.54;97787.63;10199187;28;20170;-66
2024/02/11 09:37:53;;;;;;;10.93;6.85;;;;;;;10.37;91.84;97781.53;10200032;28;20051;-65
2024/02/11 09:42:57;;;;;;;8.98;6.32;;;;;;;10.43;90.86;97801.22;10187532;28;20058;-64
2024/02/11 09:48:00;;;;;;;9.35;6.78;;;;;;;10.35;90.24;97796.81;10213989;28;20059;-63
2024/02/11 09:53:03;;;;;;;7.67;6.37;;;;;;;10.48;90.98;97801.53;10197887;28;20217;-65
2024/02/11 09:58:04;;;;;;;8.57;6.07;;;;;;;10.58;89.03;97801.22;10182427;28;20058;-64
2024/02/11 10:03:07;;;;;;;7.85;6.95;;;;;;;10.51;89.46;97795.84;10164371;28;20528;-64
2024/02/11 10:08:13;;;;;;;7.43;6.18;;;;;;;10.69;89.45;97818.56;10190676;28;20765;-63
2024/02/11 10:13:19;;;;;;;6.57;5.55;;;;;;;10.70;89.00;97822.88;10197621;28;20119;-64
2024/02/11 10:18:26;;;;;;;8.45;5.78;;;;;;;10.52;88.64;97831.22;10194423;28;20071;-62
2024/02/11 10:23:28;;;;;;;5.30;4.80;;;;;;;10.57;89.29;97836.84;10185047;28;20055;-63
2024/02/11 10:28:37;;;;;;;8.50;5.88;;;;;;;10.59;88.74;97846.28;10215464;28;20051;-63
2024/02/11 10:33:39;;;;;;;7.38;5.80;;;;;;;10.72;88.74;97839.47;10176431;28;20066;-64
2024/02/11 10:38:40;;;;;;;5.40;4.50;;;;;;;10.70;88.60;97846.84;10194068;28;20062;-63
2024/02/11 10:43:42;;;;;;;5.57;5.05;;;;;;;10.76;87.42;97841.63;10196443;28;20922;-64
2024/02/11 10:48:46;;;;;;;5.97;5.00;;;;;;;10.83;87.73;97847.03;10192647;28;20586;-65
2024/02/11 10:53:58;;;;;;;7.15;6.03;;;;;;;10.70;88.10;97849.50;10199282;28;20050;-64
2024/02/11 10:59:05;;;;;;;7.30;5.35;;;;;;;10.69;88.44;97856.66;10203795;28;20047;-64
2024/02/11 11:04:13;;;;;;;5.87;4.67;;;;;;;10.72;89.93;97850.13;10209284;28;20051;-63
2024/02/11 11:09:15;;;;;;;5.82;4.97;;;;;;;10.79;88.95;97853.72;10203814;28;20137;-64
2024/02/11 11:14:19;;;;;;;7.25;4.10;;;;;;;10.77;88.91;97853.91;10202650;28;20054;-64
2024/02/11 11:19:23;;;;;;;4.70;4.07;;;;;;;10.80;87.76;97871.34;10205748;28;20051;-65
2024/02/11 11:24:25;;;;;;;4.28;3.38;;;;;;;10.75;87.66;97855.94;10191719;28;20594;-63
2024/02/11 11:29:27;;;;;;;4.13;3.67;;;;;;;10.77;87.94;97855.75;10200574;28;20066;-64
2024/02/11 11:34:30;;;;;;;4.03;3.47;;;;;;;10.81;88.32;97854.38;10221783;28;21530;-65
2024/02/11 11:39:32;;;;;;;6.25;4.43;;;;;;;10.85;89.33;97852.97;10202275;28;20090;-63
2024/02/11 11:44:33;;;;;;;6.00;3.83;;;;;;;10.89;90.46;97850.78;10192096;28;20249;-64
2024/02/11 11:49:37;;;;;;;4.60;3.20;;;;;;;10.87;90.92;97852.78;10189507;28;20543;-63
2024/02/11 11:54:38;;;;;;;3.92;3.15;;;;;;;10.83;93.44;97851.53;10205567;28;20051;-64
2024/02/11 11:59:40;;;;;;;3.00;2.63;;;;;;;10.83;95.10;97852.34;10200263;28;20059;-63
2024/02/11 12:04:41;;;;;;;2.78;2.33;;;;;;;10.91;95.15;97854.94;10178608;28;20055;-64
2024/02/11 12:09:44;;;;;;;4.03;2.80;;;;;;;10.95;94.86;97850.88;10213456;28;20138;-64
2024/02/11 12:14:46;;;;;;;4.88;2.50;;;;;;;10.93;93.08;97854.75;10203104;28;20106;-61
2024/02/11 12:19:48;;;;;;;3.20;2.30;;;;;;;10.85;89.86;97842.34;10181525;28;20054;-62
2024/02/11 12:24:51;;;;;;;2.75;2.15;;;;;;;11.00;90.54;97842.31;10204279;28;20638;-61
2024/02/11 12:29:57;;;;;;;2.72;2.10;;;;;;;11.12;87.09;97854.19;10181196;28;20050;-64
2024/02/11 12:34:59;;;;;;;2.97;2.00;;;;;;;11.16;87.60;97851.13;10197197;28;20204;-62
2024/02/11 12:40:04;;;;;;;3.20;2.13;;;;;;;11.06;85.54;97848.75;10191557;28;20586;-63
2024/02/11 12:45:07;;;;;;;2.78;2.20;;;;;;;11.12;84.09;97858.66;10209804;28;20544;-65
2024/02/11 12:50:12;;;;;;;4.15;2.30;;;;;;;11.20;84.58;97858.56;10194941;28;20055;-65
2024/02/11 12:55:13;;;;;;;3.28;1.60;;;;;;;11.17;82.73;97858.94;10208312;28;20052;-63
2024/02/11 13:00:16;;;;;;;3.70;2.30;;;;;;;11.08;83.52;97866.19;10202170;28;20054;-65
2024/02/11 13:05:18;;;;;;;2.53;2.22;;;;;;;11.03;84.38;97857.09;10202146;28;20122;-64
2024/02/11 13:10:24;;;;;;;4.95;3.38;;;;;;;10.95;85.59;97856.19;10210384;28;20493;-64
2024/02/11 13:15:25;;;;;;;3.42;2.50;;;;;;;10.94;85.88;97865.22;10198963;28;20698;-66
2024/02/11 13:20:28;;;;;;;3.13;2.70;;;;;;;11.04;87.04;97866.75;10190720;28;20136;-64
2024/02/11 13:25:32;;;;;;;5.03;2.78;;;;;;;11.04;85.98;97866.75;10198155;28;20103;-64
2024/02/11 13:30:37;;;;;;;3.22;2.60;;;;;;;10.97;84.99;97866.66;10213374;28;20059;-62
2024/02/11 13:35:39;;;;;;;4.38;2.72;;;;;;;11.00;85.29;97868.13;10198359;28;21033;-64
2024/02/11 13:40:40;;;;;;;5.03;2.72;;;;;;;10.72;83.56;97836.81;10194072;28;20462;-62
2024/02/11 13:45:42;;;;;;;5.18;3.35;;;;;;;10.95;83.26;97872.16;10180719;28;20306;-64
2024/02/11 13:50:45;;;;;;;3.63;2.38;;;;;;;10.91;82.83;97876.22;10196541;28;20271;-64
2024/02/11 13:55:46;;;;;;;7.28;2.40;;;;;;;10.80;82.84;97874.00;10204433;28;20122;-65
2024/02/11 14:00:48;;;;;;;4.57;2.10;;;;;;;10.88;83.05;97867.75;10193989;28;20997;-65
2024/02/11 14:05:50;;;;;;;4.45;1.90;;;;;;;11.01;81.99;97875.94;10195203;28;20043;-62
2024/02/11 14:10:52;;;;;;;3.67;2.30;;;;;;;11.07;82.18;97890.34;10200616;28;20055;-64
2024/02/11 14:15:53;;;;;;;2.47;1.80;;;;;;;11.17;85.22;97885.56;10205949;28;20054;-66
2024/02/11 14:20:55;;;;;;;4.50;2.67;;;;;;;11.14;83.93;97883.28;10198611;28;20149;-65
2024/02/11 14:25:58;;;;;;;3.17;1.90;;;;;;;11.17;84.41;97876.72;10197774;28;20058;-65
2024/02/11 14:31:00;;;;;;;3.22;2.00;;;;;;;11.16;82.53;97891.88;10186659;28;20406;-64
2024/02/11 14:36:04;;;;;;;3.63;1.92;;;;;;;11.10;83.22;97888.13;10201724;28;20051;-65
2024/02/11 14:41:08;;;;;;;3.25;2.45;;;;;;;11.42;83.37;97901.22;10203323;28;20039;-64
2024/02/11 14:46:10;;;;;;;4.07;2.00;;;;;;;11.31;84.00;97903.34;10202009;28;20128;-65
2024/02/11 14:51:12;;;;;;;6.97;3.55;;;;;;;11.19;85.45;97904.84;10214199;28;20244;-66
2024/02/11 14:56:14;;;;;;;3.72;1.77;;;;;;;11.14;86.76;97901.91;10182323;28;20055;-64
2024/02/11 15:01:17;;;;;;;4.50;1.90;;;;;;;11.08;86.73;97907.94;10208696;28;20483;-64
2024/02/11 15:06:20;;;;;;;3.50;1.53;;;;;;;10.95;86.48;97925.41;10212650;28;20054;-65
2024/02/11 15:11:23;;;;;;;2.53;1.60;;;;;;;11.00;87.12;97926.69;10189396;28;20046;-63
2024/02/11 15:16:24;;;;;;;3.75;1.52;;;;;;;11.08;88.22;97924.78;10185417;28;20280;-63
2024/02/11 15:21:26;;;;;;;3.47;1.70;;;;;;;11.07;86.58;97944.41;10211186;28;20533;-64
2024/02/11 15:26:28;;;;;;;3.00;1.45;;;;;;;10.98;85.03;97926.06;10200188;28;20047;-63
2024/02/11 15:31:29;;;;;;;2.92;1.63;;;;;;;10.98;83.34;97948.16;10200483;28;20147;-63
2024/02/11 15:36:31;;;;;;;3.47;2.15;;;;;;;10.91;82.08;97945.41;10206838;28;20051;-63
2024/02/11 15:41:32;;;;;;;3.63;1.90;;;;;;;11.00;82.10;97948.81;10204858;28;20060;-64
2024/02/11 15:46:38;;;;;;;3.83;3.17;;;;;;;11.11;81.49;97948.38;10206732;28;20059;-65
2024/02/11 15:51:39;;;;;;;2.33;1.30;;;;;;;11.09;79.68;97962.84;10205495;28;20082;-64
2024/02/11 15:56:41;;;;;;;1.73;1.23;;;;;;;11.00;80.20;97947.97;10204672;28;20055;-64
2024/02/11 16:01:43;;;;;;;3.25;1.50;;;;;;;10.94;80.38;97961.03;10199554;28;20051;-64
2024/02/11 16:06:45;;;;;;;2.90;1.80;;;;;;;10.98;81.74;97965.97;10201481;28;20043;-64
2024/02/11 16:11:49;;;;;;;3.10;2.17;;;;;;;11.04;82.83;97989.22;10188038;28;20164;-64
2024/02/11 16:16:51;;;;;;;;;;;;;;;10.99;83.45;97989.75;10210164;28;20055;-64
2024/02/11 16:21:52;;;;;;;5.65;2.55;;;;;;;10.91;84.40;98003.13;10215264;28;19931;-64
2024/02/11 16:26:54;;;;;;;6.05;2.55;;;;;;;10.86;85.71;98016.16;10189515;28;20090;-64
2024/02/11 16:31:58;;;;;;;3.80;2.17;;;;;;;10.81;86.90;98024.69;10212965;28;20059;-63
2024/02/11 16:36:59;;;;;;;6.63;2.15;;;;;;;10.81;88.00;98030.00;10200892;28;20130;-64
2024/02/11 16:42:01;;;;;;;6.32;2.25;;;;;;;10.79;89.79;98029.34;10218740;28;20066;-64
2024/02/11 16:47:03;;;;;;;3.15;2.53;;;;;;;10.78;88.96;98031.19;10203045;28;20157;-64
2024/02/11 16:52:05;;;;;;;2.67;2.03;;;;;;;10.47;89.34;98007.31;10208547;28;20591;-62
2024/02/11 16:57:06;;;;;;;3.75;2.03;;;;;;;10.67;88.21;98050.22;10199618;28;20059;-63
2024/02/11 17:02:09;;;;;;;3.35;1.80;;;;;;;10.70;88.39;98057.03;10185941;28;20056;-64
2024/02/11 17:07:11;;;;;;;4.43;2.37;;;;;;;10.73;88.98;98059.34;10217489;28;20054;-64
2024/02/11 17:12:13;;;;;;;2.95;1.98;;;;;;;10.68;89.97;98072.34;10215219;28;20817;-63
2024/02/11 17:17:14;;;;;;;4.93;2.33;;;;;;;10.68;90.45;98081.16;10210824;28;20184;-65
2024/02/11 17:22:16;;;;;;;4.38;2.10;;;;;;;10.59;90.64;98075.06;10187870;28;20070;-64
2024/02/11 17:27:21;;;;;;;2.85;2.10;;;;;;;10.68;90.92;98093.66;10186394;28;20065;-63
2024/02/11 17:32:23;;;;;;;17.65;15.82;;;;;;;10.67;90.71;98082.16;10206619;28;20537;-65
2024/02/11 17:37:33;;;;;;;5.03;2.95;;;;;;;10.70;90.70;98091.63;10202100;28;20141;-64
2024/02/11 17:42:35;;;;;;;4.57;3.47;;;;;;;10.67;91.39;98108.75;10204738;28;20062;-65
2024/02/11 17:47:36;;;;;;;3.78;2.47;;;;;;;10.63;92.65;98103.97;10195807;28;20620;-65
2024/02/11 17:52:38;;;;;;;3.97;2.47;;;;;;;10.53;93.84;98110.34;10201758;28;20586;-63
2024/02/11 17:57:41;;;;;;;11.38;9.88;;;;;;;10.49;94.75;98111.69;10200681;28;20835;-64
2024/02/11 18:02:47;;;;;;;22.13;19.73;;;;;;;10.51;94.83;98120.34;10182980;28;20436;-62
2024/02/11 18:07:48;;;;;;;4.85;3.45;;;;;;;10.51;94.68;98123.00;10208704;28;20125;-65
2024/02/11 18:12:50;;;;;;;6.75;4.30;;;;;;;10.44;94.48;98135.34;10200525;28;20651;-64
2024/02/11 18:17:53;;;;;;;4.47;3.45;;;;;;;10.51;94.54;98135.47;10199365;28;20055;-64
2024/02/11 18:22:55;;;;;;;7.20;5.25;;;;;;;10.42;94.57;98121.41;10200395;28;20051;-63
2024/02/11 18:27:57;;;;;;;4.00;2.40;;;;;;;10.44;94.38;98130.84;10201854;28;20185;-65
2024/02/11 18:32:58;;;;;;;8.35;4.35;;;;;;;10.38;94.71;98126.22;10212511;28;20214;-64
2024/02/11 18:38:00;;;;;;;3.45;2.95;;;;;;;10.18;95.20;98122.31;10200383;28;20050;-64
2024/02/11 18:43:02;;;;;;;4.45;3.50;;;;;;;10.22;95.35;98132.44;10201450;28;20059;-63
2024/02/11 18:48:04;;;;;;;3.85;2.10;;;;;;;10.25;95.23;98147.19;10197110;28;20537;-65
2024/02/11 18:53:06;;;;;;;2.85;2.00;;;;;;;10.27;94.59;98146.03;10197787;28;20127;-65
2024/02/11 18:58:08;;;;;;;3.50;2.13;;;;;;;10.17;94.59;98161.34;10199393;28;20174;-64
2024/02/11 19:03:10;;;;;;;6.97;2.03;;;;;;;10.21;94.85;98159.19;10197874;28;20078;-65
2024/02/11 19:08:12;;;;;;;3.85;2.78;;;;;;;10.19;94.87;98153.22;10199904;28;20075;-64
2024/02/11 19:13:13;;;;;;;5.55;2.90;;;;;;;10.36;95.12;98168.13;10191091;28;20050;-64
2024/02/11 19:18:14;;;;;;;5.05;3.53;;;;;;;10.30;94.65;98168.78;10200445;28;20082;-65
2024/02/11 19:23:16;;;;;;;5.10;4.03;;;;;;;10.29;94.83;98171.63;10192853;28;20130;-64
2024/02/11 19:28:18;;;;;;;5.70;4.60;;;;;;;10.16;94.86;98172.97;10198291;28;20401;-65
2024/02/11 19:33:19;;;;;;;6.90;2.42;;;;;;;10.15;95.42;98165.19;10207428;28;20067;-62
2024/02/11 19:38:24;;;;;;;3.00;2.27;;;;;;;10.11;95.49;98178.00;10204564;28;20142;-65
2024/02/11 19:43:27;;;;;;;5.03;3.25;;;;;;;10.14;95.93;98190.94;10208413;28;20134;-65
2024/02/11 19:48:31;;;;;;;3.42;2.60;;;;;;;10.14;96.44;98182.97;10207660;28;20079;-63
2024/02/11 19:53:33;;;;;;;6.47;2.30;;;;;;;10.20;95.62;98192.09;10189955;28;20633;-64
2024/02/11 19:58:40;;;;;;;3.17;2.15;;;;;;;10.16;95.95;98188.94;10206878;28;20058;-62
2024/02/11 20:03:45;;;;;;;4.10;2.10;;;;;;;10.18;95.10;98194.13;10199545;28;20165;-64
2024/02/11 20:08:47;;;;;;;3.72;2.03;;;;;;;10.15;94.55;98187.31;10204782;28;20062;-62
2024/02/11 20:13:49;;;;;;;2.92;2.00;;;;;;;10.07;94.60;98195.28;10200409;28;20567;-64
2024/02/11 20:18:51;;;;;;;2.28;1.75;;;;;;;10.01;94.52;98198.63;10202685;28;20188;-64
2024/02/11 20:23:53;;;;;;;3.10;1.77;;;;;;;10.09;94.73;98198.63;10199076;28;20133;-64
2024/02/11 20:28:55;;;;;;;3.28;2.08;;;;;;;10.04;94.77;98200.94;10194211;28;20536;-63
2024/02/11 20:33:57;;;;;;;2.20;1.77;;;;;;;10.05;94.50;98210.59;10204736;28;20086;-65
2024/02/11 20:39:01;;;;;;;;;;;;;;;10.02;94.68;98209.09;10201110;28;20170;-66
2024/02/11 20:44:03;;;;;;;4.47;2.00;;;;;;;10.09;94.63;98223.38;10203702;28;20572;-65
2024/02/11 20:49:04;;;;;;;4.20;1.63;;;;;;;10.13;94.12;98231.81;10194899;28;20046;-64
2024/02/11 20:54:07;;;;;;;6.03;3.58;;;;;;;10.12;94.19;98232.84;10204342;28;20101;-64
2024/02/11 20:59:11;;;;;;;2.25;2.05;;;;;;;10.09;94.43;98239.31;10207941;28;20143;-66
2024/02/11 21:04:12;;;;;;;2.10;1.25;;;;;;;10.02;94.36;98246.31;10172805;28;20043;-60
2024/02/11 21:09:15;;;;;;;2.10;1.60;;;;;;;10.01;94.67;98236.69;10196868;28;20580;-62
2024/02/11 21:14:17;;;;;;;2.35;1.30;;;;;;;10.06;94.22;98246.81;10205324;28;20173;-65
2024/02/11 21:19:22;;;;;;;4.20;1.40;;;;;;;10.00;94.73;98252.81;10211583;28;20052;-63
2024/02/11 21:24:24;;;;;;;2.90;1.70;;;;;;;10.07;95.21;98249.28;10209398;28;20058;-64
2024/02/11 21:29:34;;;;;;;2.55;1.58;;;;;;;10.04;95.04;98246.13;10212113;28;20050;-64
2024/02/11 21:34:36;;;;;;;2.60;1.30;;;;;;;10.05;93.71;98243.31;10196727;28;20055;-64
2024/02/11 21:39:40;;;;;;;3.15;1.40;;;;;;;10.09;94.26;98259.75;10212452;28;20176;-61
2024/02/11 21:44:43;;;;;;;4.28;1.50;;;;;;;10.11;94.24;98260.41;10221838;28;25086;-62
2024/02/11 21:49:44;;;;;;;3.05;1.48;;;;;;;10.01;93.63;98257.09;10191380;28;20503;-64
2024/02/11 21:54:46;;;;;;;1.42;0.98;;;;;;;10.00;94.00;98264.25;10209412;28;20118;-62
2024/02/11 21:59:47;;;;;;;2.20;1.10;;;;;;;10.06;94.68;98265.41;10211352;28;20070;-63
2024/02/11 22:04:49;;;;;;;2.20;1.35;;;;;;;10.11;95.08;98268.38;10185055;28;20051;-64
2024/02/11 22:09:50;;;;;;;1.67;0.98;;;;;;;10.07;95.23;98265.25;10201661;28;20144;-63
2024/02/11 22:14:52;;;;;;;1.42;0.85;;;;;;;10.05;94.99;98269.88;10203751;28;20166;-62
2024/02/11 22:19:53;;;;;;;1.60;1.00;;;;;;;10.01;94.74;98271.25;10208863;28;20456;-65
2024/02/11 22:24:55;;;;;;;1.77;1.10;;;;;;;10.04;94.96;98278.88;10202251;28;20633;-64
2024/02/11 22:29:58;;;;;;;2.95;0.80;;;;;;;9.99;94.45;98267.09;10218983;28;20042;-64
2024/02/11 22:35:04;;;;;;;1.75;1.13;;;;;;;9.82;94.50;98247.69;10193087;28;20047;-62
2024/02/11 22:40:07;;;;;;;3.30;1.00;;;;;;;9.93;93.75;98271.25;10221072;28;20047;-65
2024/02/11 22:45:09;;;;;;;2.58;1.10;;;;;;;10.01;94.46;98278.38;10211713;28;20110;-62
2024/02/11 22:50:11;;;;;;;3.35;1.10;;;;;;;9.92;92.70;98274.88;10215684;28;20042;-64
2024/02/11 22:55:15;;;;;;;1.10;0.70;;;;;;;9.90;93.05;98272.41;10214588;28;20141;-64
2024/02/11 23:05:39;;;;;;;1.70;0.95;;;;;;;9.93;92.70;98265.91;10215588;28;20122;-63
2024/02/11 23:10:46;;;;;;;3.35;0.80;;;;;;;9.91;93.31;98295.31;10212563;28;20137;-64
2024/02/11 23:15:51;;;;;;;1.80;0.50;;;;;;;9.99;92.51;98298.97;10216624;28;20094;-64
2024/02/11 23:21:00;;;;;;;2.22;0.80;;;;;;;9.97;93.84;98298.28;10179150;28;20186;-63
2024/02/11 23:26:04;;;;;;;1.63;0.70;;;;;;;9.97;94.72;98304.47;10202731;28;20301;-63
2024/02/11 23:31:05;;;;;;;1.40;0.70;;;;;;;9.90;96.28;98312.25;10217054;28;20074;-62